createdAt,value
2023-12-30T00:01:28.323Z,59.63
2023-12-30T00:03:59.424Z,59.68
2023-12-30T00:06:30.469Z,59.53
2023-12-30T00:09:01.390Z,59.42
2023-12-30T00:11:32.510Z,59.43
2023-12-30T00:14:03.387Z,59.62
2023-12-30T00:16:34.286Z,59.61
2023-12-30T00:19:05.366Z,59.76
2023-12-30T00:21:36.236Z,59.57
2023-12-30T00:24:07.715Z,59.91
2023-12-30T00:26:38.616Z,59.55
2023-12-30T00:29:09.438Z,59.74
2023-12-30T00:31:40.307Z,59.57
2023-12-30T00:34:11.432Z,59.63
2023-12-30T00:36:45.568Z,59.64
2023-12-30T00:39:16.410Z,59.63
2023-12-30T00:41:47.835Z,59.65
2023-12-30T00:44:18.756Z,59.69
2023-12-30T00:46:49.621Z,59.97
2023-12-30T00:49:20.606Z,59.87
2023-12-30T00:51:51.597Z,59.69
2023-12-30T00:54:22.573Z,59.72
2023-12-30T00:56:53.428Z,59.93
2023-12-30T00:59:24.281Z,59.85
2023-12-30T01:01:55.245Z,59.73
2023-12-30T01:04:26.228Z,59.99
2023-12-30T01:06:57.253Z,60.02
2023-12-30T01:09:28.123Z,59.71
2023-12-30T01:11:59.112Z,59.94
2023-12-30T01:14:30.050Z,60.01
2023-12-30T01:17:01.248Z,59.71
2023-12-30T01:19:32.232Z,60.03
2023-12-30T01:22:03.217Z,60.03
2023-12-30T01:24:34.152Z,59.98
2023-12-30T01:27:05.264Z,60.18
2023-12-30T01:29:36.162Z,59.95
2023-12-30T01:32:07.956Z,59.94
2023-12-30T01:34:38.899Z,60.04
2023-12-30T01:37:09.939Z,60.07
2023-12-30T01:39:40.906Z,60.29
2023-12-30T01:42:11.834Z,60.03
2023-12-30T01:44:43.330Z,60.03
2023-12-30T01:47:14.440Z,59.94
2023-12-30T01:49:45.584Z,59.92
2023-12-30T01:52:16.446Z,59.99
2023-12-30T01:54:47.530Z,60.21
2023-12-30T01:57:18.805Z,60.10
2023-12-30T01:59:49.875Z,60.15
2023-12-30T02:02:22.747Z,60.21
2023-12-30T02:04:53.684Z,59.90
2023-12-30T02:07:24.524Z,60.29
2023-12-30T02:09:55.344Z,59.89
2023-12-30T02:12:26.305Z,60.02
2023-12-30T02:14:57.184Z,59.90
2023-12-30T02:17:28.243Z,60.02
2023-12-30T02:19:59.515Z,60.00
2023-12-30T02:22:30.492Z,60.12
2023-12-30T02:25:01.499Z,59.72
2023-12-30T02:27:32.332Z,59.75
2023-12-30T02:30:03.150Z,59.76
2023-12-30T02:32:34.056Z,59.64
2023-12-30T02:35:05.298Z,60.25
2023-12-30T02:37:36.278Z,60.15
2023-12-30T02:40:08.479Z,60.14
2023-12-30T02:42:39.479Z,60.26
2023-12-30T02:45:12.517Z,59.96
2023-12-30T02:47:43.821Z,59.86
2023-12-30T02:50:15.798Z,59.52
2023-12-30T02:52:46.679Z,59.87
2023-12-30T02:55:17.738Z,59.87
2023-12-30T02:57:50.137Z,59.98
2023-12-30T03:00:21.747Z,59.90
2023-12-30T03:02:52.727Z,59.94
2023-12-30T03:05:23.810Z,59.93
2023-12-30T03:07:54.795Z,60.03
2023-12-30T03:10:25.834Z,59.86
2023-12-30T03:12:56.774Z,59.99
2023-12-30T03:15:27.648Z,60.07
2023-12-30T03:17:58.735Z,59.46
2023-12-30T03:20:29.876Z,59.46
2023-12-30T03:23:00.928Z,59.83
2023-12-30T03:25:32.068Z,59.71
2023-12-30T03:28:03.152Z,59.94
2023-12-30T03:30:34.087Z,59.92
2023-12-30T03:33:05.706Z,59.94
2023-12-30T03:35:36.878Z,59.94
2023-12-30T03:38:07.730Z,59.57
2023-12-30T03:40:38.601Z,59.97
2023-12-30T03:43:09.531Z,60.20
2023-12-30T03:45:40.384Z,60.21
2023-12-30T03:48:11.396Z,60.29
2023-12-30T03:50:42.566Z,59.98
2023-12-30T03:53:13.627Z,60.22
2023-12-30T03:55:44.585Z,60.42
2023-12-30T03:58:16.063Z,60.25
2023-12-30T04:00:47.110Z,60.10
2023-12-30T04:03:18.301Z,60.48
2023-12-30T04:05:49.083Z,60.59
2023-12-30T04:08:19.872Z,60.59
2023-12-30T04:10:50.878Z,60.56
2023-12-30T04:13:21.859Z,60.22
2023-12-30T04:15:52.892Z,60.45
2023-12-30T04:18:23.936Z,60.24
2023-12-30T04:20:55.041Z,60.83
2023-12-30T04:23:27.659Z,60.58
2023-12-30T04:25:58.577Z,60.37
2023-12-30T04:28:29.675Z,60.30
2023-12-30T04:31:01.380Z,60.58
2023-12-30T04:33:32.506Z,60.77
2023-12-30T04:36:03.432Z,60.74
2023-12-30T04:38:34.314Z,60.75
2023-12-30T04:41:05.287Z,60.58
2023-12-30T04:43:36.562Z,60.69
2023-12-30T04:46:07.892Z,60.98
2023-12-30T04:48:38.883Z,60.63
2023-12-30T04:51:09.732Z,60.58
2023-12-30T04:53:40.671Z,60.53
2023-12-30T04:56:16.282Z,60.60
2023-12-30T04:58:47.167Z,60.79
2023-12-30T05:01:18.334Z,60.93
2023-12-30T05:03:49.429Z,60.90
2023-12-30T05:06:23.654Z,60.84
2023-12-30T05:08:54.451Z,60.43
2023-12-30T05:11:25.668Z,61.05
2023-12-30T05:13:56.568Z,61.18
2023-12-30T05:16:27.436Z,60.67
2023-12-30T05:18:58.541Z,60.79
2023-12-30T05:21:29.686Z,60.74
2023-12-30T05:24:00.524Z,61.13
2023-12-30T05:26:31.459Z,60.72
2023-12-30T05:29:02.384Z,61.03
2023-12-30T05:31:33.327Z,60.77
2023-12-30T05:34:05.529Z,60.88
2023-12-30T05:36:37.352Z,60.84
2023-12-30T05:39:08.208Z,61.08
2023-12-30T05:41:39.472Z,60.76
2023-12-30T05:44:10.821Z,60.84
2023-12-30T05:46:41.892Z,61.21
2023-12-30T05:49:12.703Z,60.95
2023-12-30T05:51:46.373Z,61.04
2023-12-30T05:54:17.553Z,60.91
2023-12-30T05:56:48.440Z,60.99
2023-12-30T05:59:19.222Z,61.02
2023-12-30T06:01:50.158Z,61.19
2023-12-30T06:04:21.235Z,61.33
2023-12-30T06:06:52.230Z,61.56
2023-12-30T06:09:23.127Z,61.23
2023-12-30T06:11:54.006Z,61.32
2023-12-30T06:14:24.807Z,61.41
2023-12-30T06:16:55.757Z,61.23
2023-12-30T06:19:26.721Z,61.56
2023-12-30T06:21:57.742Z,61.31
2023-12-30T06:24:28.593Z,61.48
2023-12-30T06:26:59.671Z,61.67
2023-12-30T06:29:33.236Z,61.56
2023-12-30T06:32:04.694Z,61.82
2023-12-30T06:34:36.733Z,61.55
2023-12-30T06:37:07.760Z,61.51
2023-12-30T06:39:38.612Z,61.49
2023-12-30T06:42:09.586Z,61.64
2023-12-30T06:44:41.015Z,61.55
2023-12-30T06:47:13.832Z,61.80
2023-12-30T06:49:44.749Z,62.11
2023-12-30T06:52:16.256Z,61.64
2023-12-30T06:54:49.579Z,61.83
2023-12-30T06:57:26.547Z,62.08
2023-12-30T06:59:57.461Z,61.82
2023-12-30T07:02:28.477Z,62.00
2023-12-30T07:04:59.778Z,62.02
2023-12-30T07:07:30.689Z,62.23
2023-12-30T07:10:01.515Z,61.90
2023-12-30T07:12:32.237Z,61.66
2023-12-30T07:15:03.240Z,61.76
2023-12-30T07:17:34.344Z,61.60
2023-12-30T07:20:05.664Z,61.85
2023-12-30T07:22:36.576Z,62.14
2023-12-30T07:25:08.385Z,62.14
2023-12-30T07:27:39.949Z,62.08
2023-12-30T07:30:11.454Z,62.03
2023-12-30T07:32:42.387Z,62.01
2023-12-30T07:35:13.282Z,61.85
2023-12-30T07:37:44.776Z,61.96
2023-12-30T07:40:16.233Z,62.26
2023-12-30T07:42:47.164Z,61.94
2023-12-30T07:45:18.066Z,62.18
2023-12-30T07:47:48.968Z,62.13
2023-12-30T07:50:19.928Z,62.21
2023-12-30T07:52:50.756Z,62.18
2023-12-30T07:55:21.771Z,62.08
2023-12-30T07:57:52.787Z,62.32
2023-12-30T08:00:23.963Z,62.30
2023-12-30T08:02:54.872Z,62.30
2023-12-30T08:05:25.723Z,62.52
2023-12-30T08:07:56.548Z,62.55
2023-12-30T08:10:27.352Z,62.36
2023-12-30T08:12:58.334Z,62.61
2023-12-30T08:15:29.459Z,62.30
2023-12-30T08:18:00.529Z,62.40
2023-12-30T08:20:31.695Z,62.19
2023-12-30T08:23:02.789Z,62.37
2023-12-30T08:25:33.818Z,62.57
2023-12-30T08:28:04.818Z,62.27
2023-12-30T08:30:35.770Z,62.79
2023-12-30T08:33:09.974Z,62.44
2023-12-30T08:35:41.133Z,62.42
2023-12-30T08:38:11.902Z,62.56
2023-12-30T08:40:42.914Z,62.67
2023-12-30T08:43:14.951Z,62.41
2023-12-30T08:45:46.333Z,62.69
2023-12-30T08:48:17.827Z,62.47
2023-12-30T08:50:49.780Z,62.68
2023-12-30T08:53:26.078Z,62.63
2023-12-30T08:55:57.956Z,62.96
2023-12-30T08:58:28.859Z,62.85
2023-12-30T09:00:59.878Z,62.70
2023-12-30T09:03:30.785Z,62.82
2023-12-30T09:06:01.671Z,62.88
2023-12-30T09:08:32.574Z,62.84
2023-12-30T09:11:04.000Z,62.54
2023-12-30T09:13:34.887Z,62.58
2023-12-30T09:16:06.038Z,62.38
2023-12-30T09:18:36.993Z,62.37
2023-12-30T09:21:08.006Z,62.44
2023-12-30T09:23:39.416Z,62.94
2023-12-30T09:26:10.398Z,62.39
2023-12-30T09:28:41.814Z,62.68
2023-12-30T09:31:13.172Z,62.62
2023-12-30T09:33:44.297Z,62.58
2023-12-30T09:36:16.941Z,62.15
2023-12-30T09:38:47.946Z,62.38
2023-12-30T09:41:18.805Z,62.56
2023-12-30T09:43:49.627Z,62.38
2023-12-30T09:46:20.615Z,62.14
2023-12-30T09:48:51.541Z,62.07
2023-12-30T09:51:22.508Z,62.06
2023-12-30T09:53:53.343Z,62.07
2023-12-30T09:56:24.197Z,61.98
2023-12-30T09:58:55.100Z,61.81
2023-12-30T10:01:26.094Z,61.68
2023-12-30T10:03:57.221Z,61.57
2023-12-30T10:06:28.254Z,61.56
2023-12-30T10:08:58.988Z,61.39
2023-12-30T10:11:29.774Z,61.39
2023-12-30T10:14:00.647Z,61.40
2023-12-30T10:16:31.337Z,61.23
2023-12-30T10:19:02.313Z,61.31
2023-12-30T10:21:33.349Z,61.23
2023-12-30T10:24:05.756Z,61.15
2023-12-30T10:26:38.509Z,61.00
2023-12-30T10:29:09.492Z,61.01
2023-12-30T10:31:40.349Z,60.58
2023-12-30T10:34:11.450Z,60.47
2023-12-30T10:36:42.422Z,60.57
2023-12-30T10:39:16.643Z,60.14
2023-12-30T10:41:47.448Z,59.84
2023-12-30T10:44:18.258Z,59.83
2023-12-30T10:46:52.745Z,59.86
2023-12-30T10:49:25.375Z,59.94
2023-12-30T10:51:58.731Z,59.68
2023-12-30T10:54:32.405Z,59.57
2023-12-30T10:57:04.437Z,59.24
2023-12-30T10:59:35.294Z,59.07
2023-12-30T11:02:06.380Z,59.36
2023-12-30T11:04:37.270Z,59.35
2023-12-30T11:07:08.122Z,59.34
2023-12-30T11:09:39.040Z,59.00
2023-12-30T11:12:10.712Z,59.31
2023-12-30T11:14:41.546Z,59.34
2023-12-30T11:17:12.260Z,59.17
2023-12-30T11:19:43.766Z,58.95
2023-12-30T11:22:14.643Z,58.94
2023-12-30T11:24:46.950Z,59.04
2023-12-30T11:27:18.346Z,58.67
2023-12-30T11:29:49.575Z,58.90
2023-12-30T11:32:21.089Z,58.77
2023-12-30T11:34:52.497Z,58.68
2023-12-30T11:37:23.576Z,58.58
2023-12-30T11:39:54.394Z,58.70
2023-12-30T11:42:33.725Z,58.77
2023-12-30T11:45:13.339Z,58.45
2023-12-30T11:47:44.283Z,58.24
2023-12-30T11:50:15.625Z,58.46
2023-12-30T11:52:49.021Z,58.21
2023-12-30T11:55:20.115Z,57.84
2023-12-30T11:57:51.064Z,57.74
2023-12-30T12:00:22.816Z,57.65
2023-12-30T12:02:53.657Z,57.70
2023-12-30T12:05:25.428Z,57.87
2023-12-30T12:07:56.256Z,57.46
2023-12-30T12:10:27.096Z,57.19
2023-12-30T12:12:58.469Z,56.97
2023-12-30T12:15:29.467Z,56.95
2023-12-30T12:18:00.570Z,56.74
2023-12-30T12:20:32.823Z,56.85
2023-12-30T12:23:03.848Z,56.78
2023-12-30T12:25:35.008Z,56.71
2023-12-30T12:28:10.801Z,56.67
2023-12-30T12:30:41.691Z,56.50
2023-12-30T12:33:13.807Z,56.38
2023-12-30T12:35:44.652Z,56.49
2023-12-30T12:38:15.594Z,56.16
2023-12-30T12:40:47.468Z,56.10
2023-12-30T12:43:18.418Z,56.18
2023-12-30T12:45:49.186Z,55.99
2023-12-30T12:48:20.568Z,55.84
2023-12-30T12:50:51.983Z,55.70
2023-12-30T12:53:23.037Z,55.66
2023-12-30T12:55:53.916Z,55.60
2023-12-30T12:58:24.695Z,55.57
2023-12-30T13:00:55.539Z,55.58
2023-12-30T13:03:26.639Z,55.55
2023-12-30T13:05:57.747Z,55.51
2023-12-30T13:08:31.217Z,55.38
2023-12-30T13:11:03.735Z,55.46
2023-12-30T13:13:34.706Z,55.35
2023-12-30T13:16:06.048Z,55.19
2023-12-30T13:18:36.986Z,55.11
2023-12-30T13:21:09.637Z,55.17
2023-12-30T13:23:40.534Z,55.10
2023-12-30T13:26:12.851Z,55.15
2023-12-30T13:28:44.349Z,54.95
2023-12-30T13:31:18.682Z,54.84
2023-12-30T13:33:51.566Z,54.83
2023-12-30T13:36:22.560Z,54.64
2023-12-30T13:39:00.890Z,54.50
2023-12-30T13:41:31.816Z,54.39
2023-12-30T13:44:04.344Z,54.45
2023-12-30T13:46:58.528Z,54.50
2023-12-30T13:49:55.123Z,54.55
2023-12-30T13:52:28.304Z,54.50
2023-12-30T13:54:59.276Z,54.54
2023-12-30T13:57:33.262Z,54.52
2023-12-30T14:00:04.712Z,54.54
2023-12-30T14:02:39.845Z,54.54
2023-12-30T14:05:18.828Z,54.53
2023-12-30T14:07:52.266Z,54.51
2023-12-30T14:10:26.814Z,54.46
2023-12-30T14:13:02.805Z,54.52
2023-12-30T14:15:35.960Z,54.27
2023-12-30T14:18:07.516Z,54.41
2023-12-30T14:20:38.398Z,54.42
2023-12-30T14:23:09.329Z,54.42
2023-12-30T14:25:40.663Z,54.40
2023-12-30T14:28:11.526Z,54.28
2023-12-30T14:30:42.555Z,54.36
2023-12-30T14:33:13.502Z,54.30
2023-12-30T14:35:44.377Z,54.25
2023-12-30T14:38:15.278Z,54.37
2023-12-30T14:40:46.087Z,54.32
2023-12-30T14:43:17.721Z,54.32
2023-12-30T14:45:48.548Z,54.13
2023-12-30T14:48:19.379Z,54.32
2023-12-30T14:50:50.224Z,54.27
2023-12-30T14:53:21.048Z,54.39
2023-12-30T14:55:51.924Z,54.20
2023-12-30T14:58:22.770Z,54.17
2023-12-30T15:00:53.609Z,54.11
2023-12-30T15:03:24.466Z,54.26
2023-12-30T15:05:55.378Z,54.19
2023-12-30T15:08:26.305Z,54.32
2023-12-30T15:10:57.472Z,54.45
2023-12-30T15:13:28.263Z,54.24
2023-12-30T15:15:59.290Z,54.31
2023-12-30T15:18:30.243Z,54.61
2023-12-30T15:21:01.388Z,54.42
2023-12-30T15:23:32.292Z,54.42
2023-12-30T15:26:03.878Z,54.52
2023-12-30T15:28:34.724Z,54.53
2023-12-30T15:31:06.039Z,54.65
2023-12-30T15:33:37.553Z,54.50
2023-12-30T15:36:08.935Z,54.51
2023-12-30T15:38:40.616Z,54.61
2023-12-30T15:41:11.436Z,54.45
2023-12-30T15:43:42.487Z,54.36
2023-12-30T15:46:13.383Z,54.65
2023-12-30T15:48:44.223Z,54.39
2023-12-30T15:51:15.070Z,54.71
2023-12-30T15:53:46.264Z,54.65
2023-12-30T15:56:17.275Z,54.71
2023-12-30T15:58:48.204Z,54.72
2023-12-30T16:01:19.263Z,54.62
2023-12-30T16:03:50.399Z,54.73
2023-12-30T16:06:21.290Z,54.72
2023-12-30T16:08:52.148Z,54.72
2023-12-30T16:11:23.167Z,54.81
2023-12-30T16:13:53.988Z,54.65
2023-12-30T16:16:24.922Z,54.95
2023-12-30T16:18:56.669Z,54.82
2023-12-30T16:21:28.507Z,54.83
2023-12-30T16:23:59.458Z,54.82
2023-12-30T16:26:30.379Z,54.89
2023-12-30T16:29:03.255Z,54.87
2023-12-30T16:31:34.147Z,54.75
2023-12-30T16:34:05.387Z,54.95
2023-12-30T16:36:36.681Z,54.94
2023-12-30T16:39:07.927Z,54.98
2023-12-30T16:41:38.764Z,54.76
2023-12-30T16:44:09.634Z,55.01
2023-12-30T16:46:40.918Z,54.87
2023-12-30T16:49:12.020Z,54.91
2023-12-30T16:51:43.537Z,54.90
2023-12-30T16:54:15.262Z,55.01
2023-12-30T16:56:46.260Z,55.03
2023-12-30T16:59:17.412Z,55.04
2023-12-30T17:01:48.792Z,55.22
2023-12-30T17:04:21.328Z,55.09
2023-12-30T17:06:52.355Z,55.04
2023-12-30T17:09:23.189Z,55.04
2023-12-30T17:11:54.164Z,54.88
2023-12-30T17:14:24.944Z,55.08
2023-12-30T17:16:55.927Z,55.00
2023-12-30T17:19:26.811Z,55.12
2023-12-30T17:21:57.823Z,55.26
2023-12-30T17:24:28.826Z,55.12
2023-12-30T17:27:01.846Z,55.22
2023-12-30T17:29:33.967Z,55.08
2023-12-30T17:32:05.079Z,55.13
2023-12-30T17:34:36.102Z,55.13
2023-12-30T17:37:07.631Z,55.23
2023-12-30T17:39:38.395Z,55.06
2023-12-30T17:42:11.140Z,55.11
2023-12-30T17:44:42.834Z,55.25
2023-12-30T17:47:13.767Z,55.25
2023-12-30T17:49:44.605Z,55.23
2023-12-30T17:52:15.626Z,55.39
2023-12-30T17:54:46.478Z,55.29
2023-12-30T17:57:17.713Z,55.17
2023-12-30T17:59:48.546Z,55.17
2023-12-30T18:02:19.997Z,55.18
2023-12-30T18:04:51.134Z,55.14
2023-12-30T18:07:22.408Z,55.20
2023-12-30T18:09:53.322Z,55.18
2023-12-30T18:12:24.242Z,55.33
2023-12-30T18:14:55.049Z,55.37
2023-12-30T18:17:29.126Z,55.30
2023-12-30T18:20:00.157Z,55.33
2023-12-30T18:22:31.441Z,55.33
2023-12-30T18:25:02.464Z,55.46
2023-12-30T18:27:33.405Z,55.36
2023-12-30T18:30:04.369Z,55.54
2023-12-30T18:32:35.259Z,55.39
2023-12-30T18:35:07.245Z,55.52
2023-12-30T18:37:38.545Z,55.52
2023-12-30T18:40:11.878Z,55.66
2023-12-30T18:42:43.551Z,55.46
2023-12-30T18:45:16.075Z,55.57
2023-12-30T18:47:47.007Z,55.46
2023-12-30T18:50:18.066Z,55.57
2023-12-30T18:52:51.237Z,55.63
2023-12-30T18:55:22.189Z,55.61
2023-12-30T18:57:53.176Z,55.55
2023-12-30T19:00:26.669Z,55.76
2023-12-30T19:02:57.521Z,55.64
2023-12-30T19:05:29.730Z,55.69
2023-12-30T19:08:00.758Z,55.61
2023-12-30T19:10:31.656Z,55.74
2023-12-30T19:13:02.928Z,55.68
2023-12-30T19:15:34.044Z,55.82
2023-12-30T19:18:06.725Z,55.77
2023-12-30T19:20:38.171Z,55.93
2023-12-30T19:23:09.201Z,55.93
2023-12-30T19:25:40.061Z,55.83
2023-12-30T19:28:11.050Z,56.01
2023-12-30T19:30:42.172Z,55.94
2023-12-30T19:33:14.060Z,55.95
2023-12-30T19:35:46.580Z,55.88
2023-12-30T19:38:18.301Z,55.78
2023-12-30T19:40:51.144Z,55.75
2023-12-30T19:43:22.836Z,55.88
2023-12-30T19:45:54.886Z,55.94
2023-12-30T19:48:26.348Z,55.89
2023-12-30T19:50:59.511Z,56.06
2023-12-30T19:53:30.396Z,56.02
2023-12-30T19:56:02.675Z,55.97
2023-12-30T19:58:33.850Z,56.05
2023-12-30T20:01:05.066Z,55.93
2023-12-30T20:03:36.041Z,55.84
2023-12-30T20:06:07.602Z,56.04
2023-12-30T20:08:38.579Z,55.97
2023-12-30T20:11:10.655Z,56.01
2023-12-30T20:13:41.615Z,56.24
2023-12-30T20:16:12.627Z,56.15
2023-12-30T20:18:45.714Z,56.10
2023-12-30T20:21:17.529Z,56.20
2023-12-30T20:23:48.466Z,56.02
2023-12-30T20:26:19.345Z,56.18
2023-12-30T20:28:51.571Z,56.34
2023-12-30T20:31:22.618Z,56.30
2023-12-30T20:33:53.594Z,56.40
2023-12-30T20:36:25.138Z,56.29
2023-12-30T20:38:56.811Z,56.33
2023-12-30T20:41:28.240Z,56.21
2023-12-30T20:43:59.122Z,56.46
2023-12-30T20:46:31.113Z,56.36
2023-12-30T20:49:04.996Z,56.34
2023-12-30T20:51:36.122Z,56.42
2023-12-30T20:54:07.075Z,56.45
2023-12-30T20:56:37.887Z,56.25
2023-12-30T20:59:08.739Z,56.37
2023-12-30T21:01:39.616Z,56.37
2023-12-30T21:04:10.863Z,56.35
2023-12-30T21:06:41.850Z,56.42
2023-12-30T21:09:12.851Z,56.51
2023-12-30T21:11:44.464Z,56.36
2023-12-30T21:14:15.424Z,56.51
2023-12-30T21:16:46.775Z,56.55
2023-12-30T21:19:18.112Z,56.54
2023-12-30T21:21:49.084Z,56.41
2023-12-30T21:24:19.890Z,56.45
2023-12-30T21:26:50.738Z,56.88
2023-12-30T21:29:23.159Z,57.01
2023-12-30T21:31:54.145Z,56.86
2023-12-30T21:34:26.015Z,56.97
2023-12-30T21:36:56.900Z,57.15
2023-12-30T21:39:27.815Z,57.25
2023-12-30T21:41:59.030Z,57.23
2023-12-30T21:44:29.911Z,57.27
2023-12-30T21:47:00.864Z,57.43
2023-12-30T21:49:32.421Z,57.19
2023-12-30T21:52:03.373Z,57.07
2023-12-30T21:54:34.299Z,57.11
2023-12-30T21:57:05.111Z,57.17
2023-12-30T21:59:36.363Z,57.02
2023-12-30T22:02:07.428Z,57.12
2023-12-30T22:04:38.474Z,57.16
2023-12-30T22:07:09.314Z,57.27
2023-12-30T22:09:40.312Z,57.22
2023-12-30T22:12:11.211Z,57.28
2023-12-30T22:14:42.090Z,57.23
2023-12-30T22:17:13.088Z,57.26
2023-12-30T22:19:45.644Z,57.15
2023-12-30T22:22:16.601Z,57.19
2023-12-30T22:24:48.182Z,57.16
2023-12-30T22:27:19.106Z,57.30
2023-12-30T22:29:50.037Z,57.31
2023-12-30T22:32:21.036Z,57.27
2023-12-30T22:34:52.306Z,57.20
2023-12-30T22:37:23.285Z,57.26
2023-12-30T22:39:54.255Z,57.36
2023-12-30T22:42:25.281Z,57.30
2023-12-30T22:44:56.272Z,57.33
2023-12-30T22:47:27.236Z,57.33
2023-12-30T22:49:58.281Z,57.52
2023-12-30T22:52:29.363Z,57.53
2023-12-30T22:55:00.289Z,57.59
2023-12-30T22:57:31.205Z,57.38
2023-12-30T23:00:02.450Z,57.53
2023-12-30T23:02:33.632Z,57.57
2023-12-30T23:05:04.472Z,57.55
2023-12-30T23:07:35.443Z,57.49
2023-12-30T23:10:08.342Z,57.63
2023-12-30T23:12:40.343Z,57.66
2023-12-30T23:15:11.679Z,57.59
2023-12-30T23:17:42.635Z,57.69
2023-12-30T23:20:14.002Z,57.53
2023-12-30T23:22:44.913Z,57.67
2023-12-30T23:25:16.002Z,57.58
2023-12-30T23:27:47.874Z,57.59
2023-12-30T23:30:18.988Z,57.64
2023-12-30T23:32:49.861Z,57.66
2023-12-30T23:35:20.881Z,57.68
2023-12-30T23:37:51.881Z,57.58
2023-12-30T23:40:22.831Z,57.53
2023-12-30T23:42:54.376Z,57.62
2023-12-30T23:45:25.405Z,57.79
2023-12-30T23:47:56.184Z,57.81
2023-12-30T23:50:27.015Z,57.83
2023-12-30T23:52:57.916Z,57.83
2023-12-30T23:55:28.765Z,57.75
2023-12-30T23:57:59.699Z,57.69
